Brighton, South Carolina
Current Conditions -  °F | °C
As of 3:55 AM on Wednesday 26 Nov 2014 (Local Time) from KJYL Reporting Station
Drizzle Drizzle  
Wind Chill:   Ceiling: 800
Heat Index: 10°   Visibility: 5mi
Dew Point:   Wind: 10mph
Humidity: 97%   Direction: 300°WNW
Pressure: 29.94"   Gusts: 20mph
Location:  32.6001°N, 81.2393°W
Report Text: KJYL 260855Z AUTO 30009G17KT 5SM DZ BKN008 OVC014 10/09 A2994 RMK AO2 T00960092
Loading
Personal Weather Stations






























Interactive Weather Map New forecast layout! Learn more

10-Day Weather Forecast

Advertisements
Track Severe Weather on mobile